WZZ6901 EPWR-EDLW
Flight info
| Callsign | WZZ6901 |
|---|---|
| Flight time | N/A |
| Altitude | 34000 |
| Route | ULGI2A ULGIL T707 TOMTI DCT ASTEL DCT KONAR DCT RAPET T170 RUNEN DCT FULNO T842 ADEMI ADEMI2A |
| Aircraft | A321/M-SDE1E2E3FGIJ1J4RWXY/LB1 |
Departure
| Time | 2026-05-06 13:13 |
|---|---|
| Airport | Copernicus Wrocław Airport (EPWR) |
Arrival
| Time | N/A |
|---|---|
| Airport | Dortmund Airport (EDLW) |
| Time | Latitude | Longitude | Altitude | Speed | Heading |
|---|---|---|---|---|---|
| 2026-05-06 12:51 | 51.10887 | 16.87923 | 405 ft | 0 kts | 22° |
| 2026-05-06 13:05 | 51.10870 | 16.87911 | 404 ft | 4 kts | 26° |
| 2026-05-06 13:05 | 51.10848 | 16.87894 | 404 ft | 4 kts | 18° |
| 2026-05-06 13:05 | 51.10825 | 16.87893 | 407 ft | 4 kts | 320° |
| 2026-05-06 13:06 | 51.10811 | 16.87923 | 405 ft | 2 kts | 296° |
| 2026-05-06 13:06 | 51.10809 | 16.87931 | 404 ft | 0 kts | 296° |
| 2026-05-06 13:08 | 51.10811 | 16.87924 | 432 ft | 2 kts | 296° |
| 2026-05-06 13:09 | 51.10821 | 16.87891 | 408 ft | 5 kts | 295° |
| 2026-05-06 13:09 | 51.10849 | 16.87799 | 408 ft | 11 kts | 296° |
| 2026-05-06 13:09 | 51.10885 | 16.87684 | 404 ft | 12 kts | 296° |
| 2026-05-06 13:09 | 51.10924 | 16.87556 | 408 ft | 13 kts | 295° |
| 2026-05-06 13:10 | 51.10936 | 16.87425 | 405 ft | 11 kts | 223° |
| 2026-05-06 13:10 | 51.10869 | 16.87360 | 407 ft | 12 kts | 205° |
| 2026-05-06 13:10 | 51.10789 | 16.87301 | 409 ft | 15 kts | 205° |
| 2026-05-06 13:10 | 51.10708 | 16.87212 | 407 ft | 14 kts | 252° |
| 2026-05-06 13:11 | 51.10742 | 16.87038 | 404 ft | 22 kts | 295° |
| 2026-05-06 13:11 | 51.10812 | 16.86810 | 404 ft | 23 kts | 296° |
| 2026-05-06 13:11 | 51.10824 | 16.86645 | 408 ft | 11 kts | 281° |
| 2026-05-06 13:11 | 51.10871 | 16.86610 | 407 ft | 6 kts | 59° |
| 2026-05-06 13:12 | 51.10852 | 16.86686 | 407 ft | 13 kts | 117° |
| 2026-05-06 13:12 | 51.10695 | 16.87194 | 405 ft | 89 kts | 116° |
| 2026-05-06 13:12 | 51.10326 | 16.88399 | 410 ft | 150 kts | 115° |
| 2026-05-06 13:12 | 51.09830 | 16.89999 | 846 ft | 162 kts | 118° |
| 2026-05-06 13:13 | 51.09319 | 16.91582 | 1571 ft | 163 kts | 124° |
| 2026-05-06 13:13 | 51.08795 | 16.93259 | 1948 ft | 178 kts | 120° |
| 2026-05-06 13:13 | 51.08217 | 16.95139 | 2177 ft | 200 kts | 123° |
| 2026-05-06 13:13 | 51.07529 | 16.97194 | 2360 ft | 220 kts | 131° |
| 2026-05-06 13:14 | 51.06276 | 16.98445 | 2704 ft | 214 kts | 175° |
| 2026-05-06 13:14 | 51.04811 | 16.98133 | 3102 ft | 217 kts | 204° |
| 2026-05-06 13:14 | 51.03431 | 16.97123 | 3822 ft | 220 kts | 209° |
| 2026-05-06 13:14 | 51.02097 | 16.95971 | 4696 ft | 218 kts | 211° |
| 2026-05-06 13:15 | 51.00758 | 16.94802 | 5470 ft | 221 kts | 211° |
| 2026-05-06 13:15 | 50.99391 | 16.93637 | 6230 ft | 225 kts | 210° |
| 2026-05-06 13:15 | 50.98001 | 16.92488 | 6998 ft | 226 kts | 209° |
| 2026-05-06 13:15 | 50.96597 | 16.91356 | 7759 ft | 228 kts | 209° |
| 2026-05-06 13:16 | 50.95174 | 16.90227 | 8529 ft | 230 kts | 208° |
| 2026-05-06 13:16 | 50.93722 | 16.89091 | 8892 ft | 233 kts | 208° |
| 2026-05-06 13:16 | 50.92337 | 16.87809 | 8962 ft | 229 kts | 225° |
| 2026-05-06 13:16 | 50.91522 | 16.85695 | 8969 ft | 229 kts | 255° |
| 2026-05-06 13:17 | 50.91611 | 16.83143 | 9405 ft | 242 kts | 286° |
| 2026-05-06 13:17 | 50.92309 | 16.80688 | 10123 ft | 246 kts | 290° |
| 2026-05-06 13:17 | 50.93054 | 16.78243 | 10821 ft | 248 kts | 290° |
| 2026-05-06 13:17 | 50.93818 | 16.75766 | 11498 ft | 251 kts | 290° |
| 2026-05-06 13:18 | 50.94591 | 16.73261 | 12181 ft | 254 kts | 291° |
| 2026-05-06 13:18 | 50.95370 | 16.70729 | 12910 ft | 256 kts | 291° |
| 2026-05-06 13:18 | 50.96151 | 16.68188 | 13629 ft | 257 kts | 291° |
| 2026-05-06 13:18 | 50.96935 | 16.65622 | 14216 ft | 260 kts | 290° |
| 2026-05-06 13:19 | 50.97734 | 16.62992 | 14583 ft | 274 kts | 290° |
| 2026-05-06 13:19 | 50.98587 | 16.60150 | 14776 ft | 293 kts | 290° |
| 2026-05-06 13:19 | 50.99467 | 16.57227 | 15247 ft | 301 kts | 290° |
| 2026-05-06 13:19 | 51.00385 | 16.54205 | 15830 ft | 306 kts | 290° |
| 2026-05-06 13:20 | 51.01315 | 16.51148 | 16428 ft | 310 kts | 290° |
| 2026-05-06 13:20 | 51.02088 | 16.47961 | 17007 ft | 309 kts | 279° |
| 2026-05-06 13:20 | 51.02465 | 16.44541 | 17202 ft | 323 kts | 272° |
| 2026-05-06 13:20 | 51.02737 | 16.40903 | 17348 ft | 341 kts | 272° |
| 2026-05-06 13:21 | 51.03019 | 16.37068 | 17487 ft | 358 kts | 273° |
| 2026-05-06 13:21 | 51.03589 | 16.33105 | 17680 ft | 378 kts | 283° |
| 2026-05-06 13:21 | 51.04407 | 16.29098 | 18143 ft | 384 kts | 283° |
| 2026-05-06 13:21 | 51.05233 | 16.25035 | 18656 ft | 388 kts | 283° |
| 2026-05-06 13:22 | 51.06061 | 16.20941 | 19206 ft | 391 kts | 283° |
| 2026-05-06 13:22 | 51.06892 | 16.16816 | 19779 ft | 392 kts | 283° |
| 2026-05-06 13:22 | 51.07722 | 16.12678 | 20351 ft | 394 kts | 283° |
| 2026-05-06 13:22 | 51.08549 | 16.08517 | 20927 ft | 395 kts | 281° |
| 2026-05-06 13:23 | 51.09064 | 16.04259 | 21462 ft | 390 kts | 271° |
| 2026-05-06 13:23 | 51.09086 | 15.99963 | 21971 ft | 387 kts | 261° |
| 2026-05-06 13:23 | 51.08625 | 15.95770 | 22508 ft | 384 kts | 251° |
| 2026-05-06 13:23 | 51.07828 | 15.91718 | 23011 ft | 385 kts | 250° |
| 2026-05-06 13:24 | 51.07014 | 15.87648 | 23482 ft | 387 kts | 250° |
| 2026-05-06 13:24 | 51.06203 | 15.83556 | 23902 ft | 389 kts | 250° |
| 2026-05-06 13:24 | 51.05393 | 15.79448 | 24343 ft | 391 kts | 250° |
| 2026-05-06 13:24 | 51.04576 | 15.75311 | 24690 ft | 394 kts | 250° |
| 2026-05-06 13:25 | 51.03748 | 15.71143 | 25061 ft | 397 kts | 250° |
| 2026-05-06 13:25 | 51.02913 | 15.66959 | 25469 ft | 398 kts | 250° |
| 2026-05-06 13:25 | 51.02070 | 15.62759 | 25877 ft | 400 kts | 249° |
| 2026-05-06 13:25 | 51.01220 | 15.58545 | 26272 ft | 402 kts | 249° |
| 2026-05-06 13:26 | 51.00365 | 15.54309 | 26652 ft | 404 kts | 249° |
| 2026-05-06 13:26 | 50.99509 | 15.50061 | 27048 ft | 405 kts | 249° |
| 2026-05-06 13:26 | 50.98648 | 15.45798 | 27431 ft | 406 kts | 249° |
| 2026-05-06 13:26 | 50.97782 | 15.41519 | 27801 ft | 408 kts | 249° |
| 2026-05-06 13:27 | 50.96910 | 15.37225 | 28174 ft | 410 kts | 249° |
| 2026-05-06 13:27 | 50.96033 | 15.32910 | 28548 ft | 412 kts | 249° |
| 2026-05-06 13:27 | 50.95163 | 15.28630 | 28908 ft | 414 kts | 249° |
| 2026-05-06 13:27 | 50.94278 | 15.24287 | 29345 ft | 414 kts | 249° |
| 2026-05-06 13:28 | 50.93397 | 15.19956 | 29909 ft | 412 kts | 249° |
| 2026-05-06 13:28 | 50.92522 | 15.15647 | 30356 ft | 410 kts | 249° |
| 2026-05-06 13:28 | 50.91650 | 15.11358 | 30772 ft | 409 kts | 249° |
| 2026-05-06 13:28 | 50.90775 | 15.07077 | 31176 ft | 408 kts | 249° |
| 2026-05-06 13:29 | 50.89899 | 15.02806 | 31579 ft | 407 kts | 249° |
| 2026-05-06 13:29 | 50.89024 | 14.98553 | 31968 ft | 406 kts | 249° |
| 2026-05-06 13:29 | 50.88149 | 14.94297 | 32350 ft | 406 kts | 249° |
| 2026-05-06 13:29 | 50.87274 | 14.90055 | 32728 ft | 405 kts | 249° |
| 2026-05-06 13:30 | 50.86396 | 14.85820 | 33096 ft | 405 kts | 249° |
| 2026-05-06 13:30 | 50.85493 | 14.81607 | 33480 ft | 404 kts | 248° |
| 2026-05-06 13:30 | 50.84560 | 14.77421 | 33739 ft | 404 kts | 248° |
| 2026-05-06 13:31 | 50.82665 | 14.69135 | 33809 ft | 399 kts | 248° |
| 2026-05-06 13:31 | 50.80781 | 14.60886 | 33778 ft | 399 kts | 248° |
| 2026-05-06 13:32 | 50.78906 | 14.52632 | 33772 ft | 399 kts | 248° |
| 2026-05-06 13:32 | 50.77030 | 14.44399 | 33774 ft | 398 kts | 248° |
| 2026-05-06 13:33 | 50.75142 | 14.36170 | 33776 ft | 398 kts | 248° |
| 2026-05-06 13:33 | 50.73254 | 14.27946 | 33775 ft | 398 kts | 248° |
| 2026-05-06 13:34 | 50.71367 | 14.19724 | 33779 ft | 399 kts | 248° |
| 2026-05-06 13:34 | 50.69471 | 14.11513 | 33804 ft | 398 kts | 247° |
| 2026-05-06 13:35 | 50.67561 | 14.03316 | 33801 ft | 398 kts | 247° |
| 2026-05-06 13:35 | 50.65643 | 13.95126 | 33796 ft | 398 kts | 247° |
| 2026-05-06 13:36 | 50.63725 | 13.86943 | 33786 ft | 398 kts | 247° |
| 2026-05-06 13:36 | 50.61804 | 13.78772 | 33785 ft | 398 kts | 247° |
| 2026-05-06 13:37 | 50.59878 | 13.70605 | 33780 ft | 398 kts | 247° |
| 2026-05-06 13:37 | 50.58271 | 13.63820 | 33782 ft | 398 kts | 247° |
| 2026-05-06 13:38 | 50.56338 | 13.55664 | 33772 ft | 398 kts | 247° |
| 2026-05-06 13:38 | 50.54393 | 13.47521 | 33770 ft | 398 kts | 246° |
| 2026-05-06 13:39 | 50.52446 | 13.39388 | 33778 ft | 397 kts | 246° |
| 2026-05-06 13:39 | 50.50500 | 13.31273 | 33777 ft | 397 kts | 246° |
| 2026-05-06 13:40 | 50.48228 | 13.21857 | 33773 ft | 397 kts | 246° |
| 2026-05-06 13:40 | 50.46586 | 13.15082 | 33774 ft | 396 kts | 246° |
| 2026-05-06 13:41 | 50.44605 | 13.07010 | 33784 ft | 395 kts | 243° |
| 2026-05-06 13:41 | 50.42035 | 12.99409 | 33804 ft | 394 kts | 239° |
| 2026-05-06 13:42 | 50.39412 | 12.91855 | 33794 ft | 395 kts | 239° |
| 2026-05-06 13:42 | 50.36809 | 12.84335 | 33795 ft | 395 kts | 239° |
| 2026-05-06 13:43 | 50.34172 | 12.76776 | 33798 ft | 395 kts | 239° |
| 2026-05-06 13:43 | 50.31526 | 12.69236 | 33790 ft | 395 kts | 239° |
| 2026-05-06 13:44 | 50.28881 | 12.61692 | 33791 ft | 396 kts | 239° |
| 2026-05-06 13:44 | 50.26231 | 12.54157 | 33785 ft | 395 kts | 239° |
| 2026-05-06 13:45 | 50.23573 | 12.46635 | 33805 ft | 396 kts | 239° |
| 2026-05-06 13:45 | 50.20464 | 12.34721 | 33757 ft | 404 kts | 260° |
| 2026-05-06 13:46 | 50.20517 | 12.30304 | 33755 ft | 413 kts | 275° |
| 2026-05-06 13:46 | 50.21316 | 12.25953 | 33760 ft | 420 kts | 283° |
| 2026-05-06 13:46 | 50.23266 | 12.17332 | 33778 ft | 422 kts | 283° |
| 2026-05-06 13:47 | 50.25256 | 12.08711 | 33800 ft | 422 kts | 284° |
| 2026-05-06 13:47 | 50.27236 | 12.00068 | 33838 ft | 422 kts | 283° |
| 2026-05-06 13:48 | 50.29191 | 11.91431 | 33832 ft | 421 kts | 283° |
| 2026-05-06 13:48 | 50.31130 | 11.82794 | 33827 ft | 421 kts | 283° |
| 2026-05-06 13:49 | 50.33063 | 11.74161 | 33822 ft | 420 kts | 283° |
| 2026-05-06 13:49 | 50.34989 | 11.65531 | 33812 ft | 420 kts | 283° |
| 2026-05-06 13:50 | 50.36911 | 11.56898 | 33830 ft | 420 kts | 283° |
| 2026-05-06 13:50 | 50.38826 | 11.48247 | 33809 ft | 420 kts | 283° |
| 2026-05-06 13:51 | 50.40732 | 11.39588 | 33792 ft | 420 kts | 283° |
| 2026-05-06 13:51 | 50.42635 | 11.30920 | 33778 ft | 420 kts | 283° |
| 2026-05-06 13:52 | 50.44526 | 11.22251 | 33779 ft | 420 kts | 283° |
| 2026-05-06 13:52 | 50.46415 | 11.13565 | 33780 ft | 421 kts | 283° |
| 2026-05-06 13:53 | 50.48315 | 11.04842 | 33751 ft | 423 kts | 283° |
| 2026-05-06 13:53 | 50.50215 | 10.96068 | 33752 ft | 425 kts | 283° |
| 2026-05-06 13:54 | 50.52101 | 10.87265 | 33761 ft | 426 kts | 283° |
| 2026-05-06 13:54 | 50.53990 | 10.78440 | 33758 ft | 427 kts | 283° |
| 2026-05-06 13:55 | 50.55989 | 10.69641 | 33755 ft | 428 kts | 284° |
| 2026-05-06 13:55 | 50.58010 | 10.60876 | 33745 ft | 430 kts | 285° |
| 2026-05-06 13:56 | 50.60615 | 10.52310 | 33744 ft | 437 kts | 293° |
| 2026-05-06 13:56 | 50.63562 | 10.43916 | 33735 ft | 439 kts | 294° |
| 2026-05-06 13:57 | 50.66547 | 10.35525 | 33741 ft | 439 kts | 294° |
| 2026-05-06 13:57 | 50.69503 | 10.27095 | 33750 ft | 439 kts | 294° |
| 2026-05-06 13:58 | 50.72423 | 10.18631 | 33743 ft | 440 kts | 293° |
| 2026-05-06 13:58 | 50.75338 | 10.10141 | 33736 ft | 440 kts | 293° |
| 2026-05-06 13:59 | 50.78261 | 10.01638 | 33740 ft | 440 kts | 293° |
| 2026-05-06 13:59 | 50.81183 | 9.93129 | 33735 ft | 440 kts | 293° |
| 2026-05-06 14:00 | 50.84093 | 9.84603 | 33753 ft | 441 kts | 294° |
| 2026-05-06 14:00 | 50.86999 | 9.76067 | 33750 ft | 440 kts | 294° |
| 2026-05-06 14:01 | 50.89897 | 9.67518 | 33748 ft | 441 kts | 294° |
| 2026-05-06 14:01 | 50.92794 | 9.58955 | 33736 ft | 440 kts | 293° |
| 2026-05-06 14:02 | 50.94229 | 9.54691 | 33207 ft | 439 kts | 293° |
| 2026-05-06 14:02 | 50.95667 | 9.50416 | 32511 ft | 439 kts | 294° |
| 2026-05-06 14:02 | 50.97106 | 9.46133 | 31829 ft | 440 kts | 294° |
| 2026-05-06 14:02 | 50.98547 | 9.41848 | 31146 ft | 441 kts | 294° |
| 2026-05-06 14:03 | 50.99990 | 9.37551 | 30416 ft | 442 kts | 294° |
| 2026-05-06 14:03 | 51.01434 | 9.33233 | 29733 ft | 443 kts | 294° |
| 2026-05-06 14:03 | 51.02873 | 9.28915 | 28884 ft | 443 kts | 294° |
| 2026-05-06 14:03 | 51.04317 | 9.24575 | 28020 ft | 444 kts | 294° |
| 2026-05-06 14:04 | 51.05754 | 9.20253 | 27400 ft | 439 kts | 294° |
| 2026-05-06 14:04 | 51.07174 | 9.15985 | 26778 ft | 435 kts | 294° |
| 2026-05-06 14:04 | 51.08543 | 9.11736 | 26169 ft | 428 kts | 289° |
| 2026-05-06 14:04 | 51.09432 | 9.07287 | 25563 ft | 419 kts | 282° |
| 2026-05-06 14:05 | 51.10189 | 9.02833 | 24965 ft | 415 kts | 282° |
| 2026-05-06 14:05 | 51.10934 | 8.98417 | 24392 ft | 411 kts | 282° |
| 2026-05-06 14:05 | 51.11667 | 8.94040 | 23825 ft | 407 kts | 281° |
| 2026-05-06 14:05 | 51.12389 | 8.89702 | 23245 ft | 403 kts | 281° |
| 2026-05-06 14:06 | 51.13099 | 8.85407 | 22574 ft | 400 kts | 281° |
| 2026-05-06 14:06 | 51.13802 | 8.81150 | 21926 ft | 396 kts | 281° |
| 2026-05-06 14:06 | 51.14500 | 8.76918 | 21272 ft | 393 kts | 281° |
| 2026-05-06 14:06 | 51.15183 | 8.72770 | 20471 ft | 394 kts | 281° |
| 2026-05-06 14:07 | 51.15884 | 8.68488 | 19395 ft | 404 kts | 281° |
| 2026-05-06 14:07 | 51.16602 | 8.64090 | 18610 ft | 404 kts | 281° |
| 2026-05-06 14:07 | 51.17308 | 8.59770 | 17907 ft | 402 kts | 281° |
| 2026-05-06 14:07 | 51.18011 | 8.55478 | 17199 ft | 399 kts | 282° |
| 2026-05-06 14:08 | 51.18707 | 8.51218 | 16572 ft | 396 kts | 282° |
| 2026-05-06 14:08 | 51.19395 | 8.46993 | 15943 ft | 392 kts | 282° |
| 2026-05-06 14:08 | 51.20067 | 8.42853 | 15357 ft | 389 kts | 282° |
| 2026-05-06 14:08 | 51.20738 | 8.38686 | 14699 ft | 388 kts | 282° |
| 2026-05-06 14:09 | 51.21402 | 8.34548 | 14153 ft | 384 kts | 282° |
| 2026-05-06 14:09 | 51.22062 | 8.30427 | 13617 ft | 380 kts | 282° |
| 2026-05-06 14:09 | 51.22715 | 8.26344 | 12968 ft | 378 kts | 282° |
| 2026-05-06 14:09 | 51.23359 | 8.22328 | 12544 ft | 369 kts | 282° |
| 2026-05-06 14:10 | 51.23991 | 8.18383 | 12014 ft | 365 kts | 282° |
| 2026-05-06 14:10 | 51.24614 | 8.14486 | 11483 ft | 360 kts | 282° |
| 2026-05-06 14:10 | 51.25226 | 8.10635 | 10960 ft | 356 kts | 282° |
| 2026-05-06 14:10 | 51.25825 | 8.06861 | 10683 ft | 343 kts | 281° |
| 2026-05-06 14:11 | 51.26396 | 8.03258 | 10556 ft | 327 kts | 281° |
| 2026-05-06 14:11 | 51.26940 | 7.99816 | 10436 ft | 313 kts | 281° |
| 2026-05-06 14:11 | 51.27459 | 7.96521 | 10312 ft | 300 kts | 281° |
| 2026-05-06 14:11 | 51.27957 | 7.93350 | 10177 ft | 289 kts | 281° |
| 2026-05-06 14:12 | 51.28440 | 7.90279 | 9935 ft | 282 kts | 281° |
| 2026-05-06 14:12 | 51.28910 | 7.87271 | 9812 ft | 279 kts | 281° |
| 2026-05-06 14:12 | 51.29377 | 7.84262 | 9500 ft | 280 kts | 281° |
| 2026-05-06 14:12 | 51.29847 | 7.81230 | 9065 ft | 282 kts | 281° |
| 2026-05-06 14:13 | 51.30316 | 7.78202 | 8683 ft | 281 kts | 281° |
| 2026-05-06 14:13 | 51.30783 | 7.75183 | 8353 ft | 278 kts | 281° |
| 2026-05-06 14:13 | 51.31249 | 7.72168 | 7936 ft | 279 kts | 281° |
| 2026-05-06 14:13 | 51.31712 | 7.69178 | 7748 ft | 275 kts | 281° |
| 2026-05-06 14:14 | 51.32169 | 7.66212 | 7397 ft | 273 kts | 281° |
| 2026-05-06 14:14 | 51.32621 | 7.63280 | 6633 ft | 272 kts | 283° |
| 2026-05-06 14:14 | 51.33070 | 7.60366 | 5974 ft | 268 kts | 283° |
| 2026-05-06 14:14 | 51.33515 | 7.57474 | 5549 ft | 269 kts | 284° |
| 2026-05-06 14:15 | 51.33962 | 7.54573 | 5139 ft | 270 kts | 284° |
| 2026-05-06 14:15 | 51.34716 | 7.51846 | 4710 ft | 269 kts | 307° |
| 2026-05-06 14:15 | 51.35933 | 7.49583 | 4265 ft | 269 kts | 313° |
| 2026-05-06 14:15 | 51.37203 | 7.47378 | 3836 ft | 270 kts | 314° |
| 2026-05-06 14:16 | 51.38448 | 7.45190 | 3380 ft | 259 kts | 314° |
| 2026-05-06 14:16 | 51.39615 | 7.43113 | 3035 ft | 241 kts | 313° |
| 2026-05-06 14:16 | 51.40742 | 7.41358 | 2996 ft | 217 kts | 332° |
| 2026-05-06 14:16 | 51.42160 | 7.40754 | 3038 ft | 208 kts | 4° |
| 2026-05-06 14:17 | 51.43495 | 7.41459 | 3022 ft | 202 kts | 25° |
| 2026-05-06 14:17 | 51.44737 | 7.42474 | 2990 ft | 199 kts | 32° |
| 2026-05-06 14:17 | 51.45737 | 7.44011 | 2811 ft | 200 kts | 54° |
| 2026-05-06 14:17 | 51.46430 | 7.45915 | 2578 ft | 199 kts | 59° |
| 2026-05-06 14:18 | 51.47099 | 7.47815 | 2330 ft | 186 kts | 58° |
| 2026-05-06 14:18 | 51.47709 | 7.49542 | 2064 ft | 170 kts | 58° |
| 2026-05-06 14:18 | 51.48254 | 7.51083 | 1862 ft | 151 kts | 57° |
| 2026-05-06 14:18 | 51.48679 | 7.52339 | 1673 ft | 142 kts | 60° |
| 2026-05-06 14:19 | 51.49069 | 7.53775 | 1438 ft | 140 kts | 66° |
| 2026-05-06 14:19 | 51.49425 | 7.55202 | 1176 ft | 135 kts | 59° |
| 2026-05-06 14:19 | 51.49956 | 7.56445 | 999 ft | 135 kts | 48° |
| 2026-05-06 14:19 | 51.50533 | 7.57677 | 788 ft | 138 kts | 51° |
| 2026-05-06 14:20 | 51.50685 | 7.58024 | 741 ft | 136 kts | 52° |